Time;durP1;ratioP1;P1;durP2;ratioP2;P2;SDS_P1;SDS_P2;PMS_P1;PMS_P2;Temp;Humidity;BMP_temperature;BMP_pressure;BME280_temperature;BME280_humidity;BME280_pressure;Samples;Min_cycle;Max_cycle;Signal;HPM_P1;HPM_P2
2023/02/28 00:00:12;;;;;;;2.40;1.60;;;2.10;99.80;;;;;;4922466;29;20471;-67
2023/02/28 00:02:42;;;;;;;2.30;1.87;;;2.10;99.80;;;;;;4924815;28;20460;-69
2023/02/28 00:05:09;;;;;;;2.07;1.87;;;2.10;99.80;;;;;;4927049;28;20506;-68
2023/02/28 00:07:35;;;;;;;1.73;1.63;;;2.10;99.90;;;;;;4920719;29;20466;-69
2023/02/28 00:10:02;;;;;;;1.80;1.70;;;2.00;99.90;;;;;;4923662;29;20482;-69
2023/02/28 00:12:28;;;;;;;1.30;1.20;;;2.00;99.90;;;;;;4924332;28;20230;-68
2023/02/28 00:14:53;;;;;;;4.47;1.70;;;2.00;99.90;;;;;;4921122;29;20550;-69
2023/02/28 00:17:21;;;;;;;1.77;1.30;;;2.00;99.90;;;;;;4927108;29;20225;-68
2023/02/28 00:19:50;;;;;;;2.43;2.23;;;2.00;99.90;;;;;;4925946;29;20222;-68
2023/02/28 00:22:18;;;;;;;2.50;1.70;;;1.90;99.90;;;;;;4927831;29;20458;-68
2023/02/28 00:24:45;;;;;;;2.43;1.30;;;2.00;99.90;;;;;;4925741;29;20623;-68
2023/02/28 00:27:10;;;;;;;2.10;1.90;;;1.90;99.90;;;;;;4926247;29;20458;-67
2023/02/28 00:29:37;;;;;;;1.53;1.43;;;1.90;99.90;;;;;;4910501;29;20478;-69
2023/02/28 00:32:03;;;;;;;1.67;1.40;;;1.90;99.90;;;;;;4924921;29;20301;-68
2023/02/28 00:34:30;;;;;;;2.17;1.60;;;1.90;99.90;;;;;;4943013;28;20463;-68
2023/02/28 00:36:55;;;;;;;1.27;1.20;;;1.90;99.90;;;;;;4908841;29;20470;-68
2023/02/28 00:39:21;;;;;;;1.90;1.53;;;1.80;99.90;;;;;;4910580;29;20308;-69
2023/02/28 00:41:47;;;;;;;1.50;1.40;;;1.80;99.90;;;;;;4908047;29;20236;-68
2023/02/28 00:44:13;;;;;;;4.03;2.00;;;1.80;99.90;;;;;;4912558;29;20471;-69
2023/02/28 00:46:39;;;;;;;1.30;1.20;;;1.90;99.90;;;;;;4919534;29;20217;-69
2023/02/28 00:49:04;;;;;;;1.60;1.50;;;1.80;99.90;;;;;;4929416;29;21308;-68
2023/02/28 00:51:30;;;;;;;2.33;1.13;;;1.80;99.90;;;;;;4927310;29;20236;-69
2023/02/28 00:53:56;;;;;;;1.13;1.07;;;1.80;99.90;;;;;;4948694;28;20221;-69
2023/02/28 00:56:23;;;;;;;2.10;1.40;;;1.90;99.90;;;;;;4915295;29;20475;-69
2023/02/28 00:58:48;;;;;;;1.77;1.60;;;1.90;99.90;;;;;;4920353;29;20475;-69
2023/02/28 01:01:14;;;;;;;2.50;1.67;;;2.00;99.90;;;;;;4909006;29;20285;-69
2023/02/28 01:03:40;;;;;;;2.20;1.57;;;2.00;99.90;;;;;;4919142;29;20214;-67
2023/02/28 01:06:06;;;;;;;1.70;1.60;;;2.00;99.90;;;;;;4922577;29;20223;-69
2023/02/28 01:08:31;;;;;;;2.47;1.80;;;1.90;99.90;;;;;;4920925;29;20230;-67
2023/02/28 01:10:57;;;;;;;1.53;1.43;;;2.00;99.90;;;;;;4927859;29;20225;-69
2023/02/28 01:13:23;;;;;;;3.57;2.10;;;2.00;99.90;;;;;;4912884;29;20233;-67
2023/02/28 01:15:55;;;;;;;2.60;1.73;;;2.00;99.90;;;;;;4932841;28;20278;-70
2023/02/28 01:18:22;;;;;;;2.87;1.83;;;1.90;99.90;;;;;;4912165;29;20241;-69
2023/02/28 01:20:48;;;;;;;2.07;1.50;;;1.90;99.90;;;;;;4923194;28;20494;-69
2023/02/28 01:23:15;;;;;;;3.60;2.30;;;1.90;99.90;;;;;;4922684;29;20534;-69
2023/02/28 01:25:41;;;;;;;2.70;1.90;;;1.90;99.90;;;;;;4918382;29;20549;-68
2023/02/28 01:28:06;;;;;;;2.40;1.70;;;1.90;99.90;;;;;;4915500;29;20336;-69
2023/02/28 01:30:32;;;;;;;2.60;2.20;;;1.80;99.90;;;;;;4936296;28;20229;-68
2023/02/28 01:32:58;;;;;;;2.70;1.80;;;1.80;99.90;;;;;;4929150;28;20739;-67
2023/02/28 01:35:24;;;;;;;2.00;1.80;;;1.80;99.90;;;;;;4923391;28;20532;-69
2023/02/28 01:37:50;;;;;;;2.27;2.07;;;1.80;99.90;;;;;;4911951;29;20538;-68
2023/02/28 01:40:16;;;;;;;1.93;1.80;;;1.90;99.90;;;;;;4896768;29;20254;-69
2023/02/28 01:42:41;;;;;;;5.27;3.13;;;1.90;99.90;;;;;;4903905;29;20238;-68
2023/02/28 01:45:22;;;;;;;9.27;2.90;;;1.90;99.90;;;;;;4930809;28;20230;-68
2023/02/28 01:47:51;;;;;;;7.07;3.50;;;1.90;99.90;;;;;;4941676;28;20233;-70
2023/02/28 01:50:26;;;;;;;4.80;2.70;;;1.90;99.90;;;;;;4917464;29;20458;-69
2023/02/28 01:52:56;;;;;;;4.53;2.40;;;1.90;99.90;;;;;;4915432;29;20461;-69
2023/02/28 01:55:24;;;;;;;4.77;3.00;;;1.90;99.90;;;;;;4945820;28;20522;-69
2023/02/28 01:57:53;;;;;;;4.23;2.77;;;1.80;99.90;;;;;;4924459;29;20470;-69
2023/02/28 02:00:23;;;;;;;2.77;2.50;;;1.90;99.90;;;;;;4924775;29;20937;-68
2023/02/28 02:02:53;;;;;;;5.00;2.43;;;1.80;99.90;;;;;;4919412;29;20917;-69
2023/02/28 02:05:22;;;;;;;2.67;2.43;;;1.80;99.90;;;;;;4917161;29;20474;-69
2023/02/28 02:07:52;;;;;;;3.03;2.37;;;1.80;99.90;;;;;;4916462;29;20545;-70
2023/02/28 02:10:22;;;;;;;4.33;2.60;;;1.80;99.90;;;;;;4923778;29;20554;-69
2023/02/28 02:13:06;;;;;;;3.93;2.90;;;1.80;99.90;;;;;;4928618;29;20584;-68
2023/02/28 02:15:48;;;;;;;4.77;2.43;;;1.70;99.90;;;;;;4931990;29;20974;-69
2023/02/28 02:18:30;;;;;;;3.23;2.70;;;1.70;99.90;;;;;;4909523;29;20459;-69
2023/02/28 02:21:15;;;;;;;3.23;2.67;;;1.60;99.90;;;;;;4928244;29;20476;-68
2023/02/28 02:23:54;;;;;;;3.87;3.27;;;1.60;99.90;;;;;;4927233;29;20491;-68
2023/02/28 02:26:35;;;;;;;6.33;3.60;;;1.60;99.90;;;;;;4947768;28;20469;-69
2023/02/28 02:29:30;;;;;;;4.87;3.00;;;1.60;99.90;;;;;;4914866;29;20481;-69
2023/02/28 02:32:35;;;;;;;3.53;2.83;;;1.60;99.90;;;;;;4909724;29;20469;-69
2023/02/28 02:35:06;;;;;;;6.23;3.10;;;1.60;99.90;;;;;;4913167;29;20473;-68
2023/02/28 02:37:48;;;;;;;6.10;3.13;;;1.60;99.90;;;;;;4945136;28;20466;-69
2023/02/28 02:40:20;;;;;;;4.30;2.80;;;1.60;99.90;;;;;;4934446;28;20469;-70
2023/02/28 02:42:56;;;;;;;4.10;2.47;;;1.60;99.90;;;;;;4918609;29;20477;-70
2023/02/28 02:45:37;;;;;;;3.70;2.37;;;1.60;99.90;;;;;;4931147;29;20532;-68
2023/02/28 02:48:08;;;;;;;2.97;2.33;;;1.60;99.90;;;;;;4948772;28;20999;-70
2023/02/28 02:50:43;;;;;;;5.30;2.80;;;1.50;99.90;;;;;;4929829;29;20538;-68
2023/02/28 02:53:10;;;;;;;3.27;2.47;;;1.50;99.90;;;;;;4922299;29;20476;-68
2023/02/28 02:55:41;;;;;;;3.60;2.70;;;1.50;99.90;;;;;;4921414;29;20594;-69
2023/02/28 02:58:20;;;;;;;4.53;2.43;;;1.60;99.90;;;;;;4914631;29;20459;-69
2023/02/28 03:00:56;;;;;;;4.20;2.63;;;1.50;99.90;;;;;;4906168;29;20481;-70
2023/02/28 03:03:28;;;;;;;5.83;3.27;;;1.50;99.90;;;;;;4905398;29;20454;-69
2023/02/28 03:05:57;;;;;;;3.30;2.20;;;1.50;99.90;;;;;;4915122;29;20519;-69
2023/02/28 03:08:23;;;;;;;4.93;3.50;;;1.40;99.90;;;;;;4944656;28;20480;-69
2023/02/28 03:11:00;;;;;;;2.87;2.43;;;1.50;99.90;;;;;;4928117;28;20502;-69
2023/02/28 03:13:51;;;;;;;4.47;3.07;;;1.50;99.90;;;;;;4924308;29;20477;-69
2023/02/28 03:16:33;;;;;;;2.10;1.93;;;1.50;99.90;;;;;;4952048;28;20474;-68
2023/02/28 03:19:03;;;;;;;3.33;3.00;;;1.50;99.90;;;;;;4944020;28;20545;-68
2023/02/28 03:22:20;;;;;;;4.00;3.00;;;1.40;99.90;;;;;;4924688;29;20895;-69
2023/02/28 03:25:04;;;;;;;4.50;3.07;;;1.30;99.90;;;;;;4898280;29;20478;-76
2023/02/28 03:27:34;;;;;;;4.00;2.83;;;1.40;99.90;;;;;;4914452;29;20498;-68
2023/02/28 03:30:19;;;;;;;3.43;2.90;;;1.40;99.90;;;;;;4927360;29;20494;-70
2023/02/28 03:32:56;;;;;;;3.30;2.53;;;1.40;99.90;;;;;;4925522;29;21007;-68
2023/02/28 03:35:25;;;;;;;3.07;2.40;;;1.40;99.90;;;;;;4926407;29;20477;-69
2023/02/28 03:38:01;;;;;;;3.23;2.90;;;1.30;99.90;;;;;;4923304;29;20509;-70
2023/02/28 03:40:32;;;;;;;3.40;2.83;;;1.40;99.90;;;;;;4924593;29;20474;-69
2023/02/28 03:43:02;;;;;;;5.10;2.70;;;1.40;99.90;;;;;;4926978;29;20845;-69
2023/02/28 03:45:30;;;;;;;3.10;2.17;;;1.40;99.90;;;;;;4921748;29;20462;-67
2023/02/28 03:48:05;;;;;;;2.80;2.20;;;1.40;99.90;;;;;;4914401;29;20459;-69
2023/02/28 03:50:35;;;;;;;3.67;1.97;;;1.40;99.90;;;;;;4948695;28;20473;-69
2023/02/28 03:53:27;;;;;;;3.63;2.50;;;1.40;99.90;;;;;;4916674;29;20541;-69
2023/02/28 03:55:54;;;;;;;6.00;2.80;;;1.40;99.90;;;;;;4931257;29;20476;-70
2023/02/28 03:58:42;;;;;;;2.13;1.90;;;1.40;99.90;;;;;;4922580;29;20464;-68
2023/02/28 04:01:27;;;;;;;2.40;1.90;;;1.40;99.90;;;;;;4926076;29;20470;-68
2023/02/28 04:03:53;;;;;;;3.10;2.60;;;1.40;99.90;;;;;;4922193;29;21028;-69
2023/02/28 04:06:21;;;;;;;3.40;2.80;;;1.40;99.90;;;;;;4916606;29;20458;-69
2023/02/28 04:08:48;;;;;;;2.50;2.30;;;1.40;99.90;;;;;;4915783;29;20306;-70
2023/02/28 04:11:25;;;;;;;2.80;2.40;;;1.50;99.90;;;;;;4931249;28;20466;-69
2023/02/28 04:13:51;;;;;;;3.57;2.87;;;1.50;99.90;;;;;;4951981;28;20886;-69
2023/02/28 04:16:17;;;;;;;2.80;2.23;;;1.50;99.90;;;;;;4946211;28;20460;-68
2023/02/28 04:18:43;;;;;;;2.40;1.97;;;1.40;99.90;;;;;;4942795;28;20487;-68
2023/02/28 04:21:10;;;;;;;3.17;2.47;;;1.40;99.90;;;;;;4916567;29;20561;-70
2023/02/28 04:23:36;;;;;;;3.50;2.37;;;1.40;99.90;;;;;;4915658;29;20217;-68
2023/02/28 04:26:03;;;;;;;2.80;2.00;;;1.30;99.90;;;;;;4921280;29;20502;-70
2023/02/28 04:28:29;;;;;;;2.67;2.47;;;1.20;99.90;;;;;;4940785;28;20483;-70
2023/02/28 04:31:01;;;;;;;3.70;2.93;;;1.20;99.90;;;;;;4925736;29;20466;-68
2023/02/28 04:33:27;;;;;;;3.03;2.30;;;1.30;99.90;;;;;;4939855;28;20476;-68
2023/02/28 04:36:08;;;;;;;2.43;2.17;;;1.30;99.90;;;;;;4924903;29;20476;-70
2023/02/28 04:38:38;;;;;;;2.80;2.50;;;1.30;99.90;;;;;;4926529;29;20468;-68
2023/02/28 04:41:05;;;;;;;4.10;2.27;;;1.30;99.90;;;;;;4921882;29;20984;-69
2023/02/28 04:43:31;;;;;;;3.23;2.37;;;1.30;99.90;;;;;;4942884;28;21012;-67
2023/02/28 04:46:00;;;;;;;2.77;2.20;;;1.20;99.90;;;;;;4919329;29;20474;-70
2023/02/28 04:48:29;;;;;;;2.73;2.17;;;1.20;99.90;;;;;;4923485;29;20486;-69
2023/02/28 04:50:59;;;;;;;3.13;1.97;;;1.20;99.90;;;;;;4945009;28;20470;-70
2023/02/28 04:53:24;;;;;;;5.27;2.43;;;1.20;99.90;;;;;;4915097;29;20477;-68
2023/02/28 04:55:50;;;;;;;3.37;2.13;;;1.20;99.90;;;;;;4910995;29;20548;-69
2023/02/28 04:58:16;;;;;;;5.07;2.43;;;1.10;99.90;;;;;;4910064;29;20246;-69
2023/02/28 05:00:41;;;;;;;2.47;2.00;;;1.10;99.90;;;;;;4922453;29;20261;-68
2023/02/28 05:03:07;;;;;;;3.73;2.53;;;1.10;99.90;;;;;;4919238;29;20265;-69
2023/02/28 05:05:33;;;;;;;2.67;1.83;;;1.10;99.90;;;;;;4924129;29;20231;-69
2023/02/28 05:07:59;;;;;;;3.10;2.40;;;1.10;99.90;;;;;;4918189;29;20260;-69
2023/02/28 05:10:24;;;;;;;2.70;2.33;;;1.10;99.90;;;;;;4940554;28;20236;-69
2023/02/28 05:12:50;;;;;;;2.97;2.27;;;1.10;99.90;;;;;;4925010;29;20727;-69
2023/02/28 05:15:17;;;;;;;3.07;2.20;;;1.10;99.90;;;;;;4925422;29;20230;-69
2023/02/28 05:17:43;;;;;;;3.20;2.30;;;1.10;99.90;;;;;;4923683;29;20240;-69
2023/02/28 05:20:16;;;;;;;2.90;2.70;;;1.10;99.90;;;;;;4925493;28;20549;-69
2023/02/28 05:22:43;;;;;;;2.97;2.63;;;1.10;99.90;;;;;;4923360;29;20821;-68
2023/02/28 05:25:16;;;;;;;3.40;2.40;;;1.10;99.90;;;;;;4900373;29;20456;-68
2023/02/28 05:27:42;;;;;;;2.00;1.90;;;1.10;99.90;;;;;;4948752;28;20469;-69
2023/02/28 05:30:10;;;;;;;5.33;2.80;;;1.10;99.90;;;;;;4923143;29;20474;-69
2023/02/28 05:32:42;;;;;;;3.60;2.30;;;1.10;99.90;;;;;;4924859;28;20224;-69
2023/02/28 05:35:10;;;;;;;1.90;1.80;;;1.10;99.90;;;;;;4929576;28;20450;-68
2023/02/28 05:37:36;;;;;;;4.27;1.70;;;1.00;99.90;;;;;;4927246;29;20558;-69
2023/02/28 05:40:05;;;;;;;4.20;1.90;;;1.00;99.90;;;;;;4928404;28;20478;-69
2023/02/28 05:42:32;;;;;;;1.93;1.83;;;1.00;99.90;;;;;;4926856;29;20485;-68
2023/02/28 05:44:57;;;;;;;3.07;2.53;;;0.90;99.90;;;;;;4909779;29;20470;-69
2023/02/28 05:47:23;;;;;;;2.30;2.10;;;0.90;99.90;;;;;;4929047;29;20550;-69
2023/02/28 05:49:48;;;;;;;3.73;1.80;;;0.80;99.90;;;;;;4941112;28;20235;-69
2023/02/28 05:52:15;;;;;;;2.80;2.43;;;0.80;99.90;;;;;;4931054;29;20222;-68
2023/02/28 05:54:41;;;;;;;2.37;1.77;;;0.80;99.90;;;;;;4932433;29;20223;-68
2023/02/28 05:57:06;;;;;;;3.03;2.00;;;0.90;99.90;;;;;;4922881;29;21000;-68
2023/02/28 05:59:32;;;;;;;3.90;2.13;;;0.90;99.90;;;;;;4951086;28;20474;-68
2023/02/28 06:01:58;;;;;;;2.30;2.10;;;0.90;99.90;;;;;;4931501;29;20229;-69
2023/02/28 06:04:23;;;;;;;3.97;2.70;;;0.80;99.90;;;;;;4931929;28;20278;-68
2023/02/28 06:06:50;;;;;;;3.50;2.30;;;0.80;99.90;;;;;;4935178;28;20301;-70
2023/02/28 06:09:17;;;;;;;2.80;2.07;;;0.70;99.90;;;;;;4926803;29;20250;-68
2023/02/28 06:11:42;;;;;;;2.33;1.87;;;0.70;99.90;;;;;;4912777;29;20490;-67
2023/02/28 06:14:15;;;;;;;2.03;1.83;;;0.80;99.90;;;;;;4926686;29;20466;-68
2023/02/28 06:16:41;;;;;;;2.83;2.50;;;0.80;99.90;;;;;;4920239;29;20286;-67
2023/02/28 06:19:07;;;;;;;2.10;1.70;;;0.80;99.90;;;;;;4902603;29;20534;-67
2023/02/28 06:21:32;;;;;;;3.23;2.00;;;0.80;99.90;;;;;;4936811;28;20250;-67
2023/02/28 06:23:59;;;;;;;2.80;2.07;;;0.80;99.90;;;;;;4923030;29;20222;-68
2023/02/28 06:26:25;;;;;;;3.50;2.00;;;0.70;99.90;;;;;;4918837;29;20686;-67
2023/02/28 06:28:51;;;;;;;2.70;2.50;;;0.60;99.90;;;;;;4941567;28;20508;-69
2023/02/28 06:31:18;;;;;;;2.20;2.00;;;0.60;99.90;;;;;;4888693;28;20465;-70
2023/02/28 06:33:45;;;;;;;2.27;2.00;;;0.60;99.90;;;;;;4930137;29;20296;-69
2023/02/28 06:36:12;;;;;;;2.13;1.93;;;0.60;99.90;;;;;;4929772;29;20539;-70
2023/02/28 06:38:39;;;;;;;3.67;3.17;;;0.50;99.90;;;;;;4929742;29;20458;-69
2023/02/28 06:41:06;;;;;;;9.07;2.37;;;0.50;99.90;;;;;;4906319;29;20587;-70
2023/02/28 06:43:35;;;;;;;3.70;2.47;;;0.40;99.90;;;;;;4933475;29;20459;-70
2023/02/28 06:46:04;;;;;;;2.77;1.93;;;0.40;99.90;;;;;;4923820;29;20883;-71
2023/02/28 06:48:30;;;;;;;2.30;2.10;;;0.30;99.90;;;;;;4944738;28;20454;-68
2023/02/28 06:51:17;;;;;;;3.20;2.33;;;0.40;99.90;;;;;;4924928;29;20465;-70
2023/02/28 06:53:43;;;;;;;2.87;1.97;;;0.40;99.90;;;;;;4905168;29;20232;-70
2023/02/28 06:56:12;;;;;;;2.57;2.00;;;0.40;99.90;;;;;;4924421;29;20449;-70
2023/02/28 06:58:39;;;;;;;4.73;2.83;;;0.30;99.90;;;;;;4892154;29;20466;-70
2023/02/28 07:01:05;;;;;;;2.10;1.93;;;0.30;99.90;;;;;;4924060;29;20553;-70
2023/02/28 07:03:31;;;;;;;2.73;1.90;;;0.40;99.90;;;;;;4946876;28;20463;-70
2023/02/28 07:05:57;;;;;;;2.40;2.20;;;0.30;99.90;;;;;;4921121;29;20473;-69
2023/02/28 07:08:23;;;;;;;5.03;2.50;;;0.20;99.90;;;;;;4937785;28;20473;-70
2023/02/28 07:10:56;;;;;;;2.63;1.70;;;0.30;99.90;;;;;;4920849;29;20616;-70
2023/02/28 07:13:23;;;;;;;2.07;1.83;;;0.40;99.90;;;;;;4919731;29;20475;-70
2023/02/28 07:15:55;;;;;;;3.90;1.90;;;0.30;99.90;;;;;;4921816;29;20477;-70
2023/02/28 07:18:20;;;;;;;2.93;2.00;;;0.30;99.90;;;;;;4922414;28;20614;-70
2023/02/28 07:20:46;;;;;;;3.33;2.20;;;0.40;99.90;;;;;;4920349;29;20574;-70
2023/02/28 07:23:12;;;;;;;3.13;1.97;;;0.40;99.90;;;;;;4920597;29;20223;-70
2023/02/28 07:25:37;;;;;;;1.93;1.83;;;0.50;99.90;;;;;;4926369;28;20697;-70
2023/02/28 07:28:03;;;;;;;1.90;1.70;;;0.50;99.90;;;;;;4919401;29;20646;-70
2023/02/28 07:30:29;;;;;;;4.97;2.30;;;0.50;99.90;;;;;;4934204;28;20257;-70
2023/02/28 07:32:55;;;;;;;2.87;2.20;;;0.50;99.90;;;;;;4942312;28;20222;-70
2023/02/28 07:35:22;;;;;;;6.60;2.50;;;0.50;99.90;;;;;;4922581;29;20222;-70
2023/02/28 07:37:47;;;;;;;3.30;2.47;;;0.50;99.90;;;;;;4922991;29;20481;-70
2023/02/28 07:40:14;;;;;;;3.10;1.80;;;0.60;99.90;;;;;;4924503;29;20470;-69
2023/02/28 07:42:41;;;;;;;2.07;1.90;;;0.60;99.90;;;;;;4939691;28;20309;-69
2023/02/28 07:45:11;;;;;;;3.70;2.10;;;0.70;99.90;;;;;;4941312;28;20999;-70
2023/02/28 07:47:38;;;;;;;2.60;1.93;;;0.70;99.90;;;;;;4920426;29;20462;-70
2023/02/28 07:50:05;;;;;;;4.77;2.57;;;0.80;99.90;;;;;;4924826;29;20497;-68
2023/02/28 07:52:32;;;;;;;5.60;2.20;;;0.80;99.90;;;;;;4920638;29;20472;-68
2023/02/28 07:54:57;;;;;;;3.93;2.33;;;0.80;99.90;;;;;;4919815;28;20473;-70
2023/02/28 07:57:23;;;;;;;2.53;2.27;;;0.80;99.90;;;;;;4925997;29;20461;-70
2023/02/28 07:59:49;;;;;;;2.70;1.90;;;0.90;99.90;;;;;;4923042;29;20230;-70
2023/02/28 08:02:16;;;;;;;3.30;2.80;;;0.90;99.90;;;;;;4919496;29;20232;-69
2023/02/28 08:04:42;;;;;;;2.80;2.40;;;1.00;99.90;;;;;;4924581;29;20241;-70
2023/02/28 08:07:12;;;;;;;2.40;2.20;;;1.00;99.90;;;;;;4943221;28;20444;-69
2023/02/28 08:09:39;;;;;;;5.47;3.00;;;1.10;99.90;;;;;;4923802;29;20465;-70
2023/02/28 08:12:05;;;;;;;4.73;2.23;;;1.20;99.90;;;;;;4924946;29;20508;-69
2023/02/28 08:14:30;;;;;;;3.13;2.00;;;1.20;99.90;;;;;;4928775;28;20454;-68
2023/02/28 08:16:56;;;;;;;4.53;2.67;;;1.20;99.90;;;;;;4922568;28;20467;-69
2023/02/28 08:19:22;;;;;;;3.63;2.40;;;1.20;99.90;;;;;;4924563;29;20233;-71
2023/02/28 08:21:47;;;;;;;4.67;2.00;;;1.30;99.90;;;;;;4923644;29;20259;-70
2023/02/28 08:24:13;;;;;;;3.70;2.00;;;1.30;99.90;;;;;;4919410;29;20227;-70
2023/02/28 08:26:39;;;;;;;2.33;2.10;;;1.30;99.90;;;;;;4906228;29;20223;-69
2023/02/28 08:29:04;;;;;;;3.20;2.37;;;1.40;99.90;;;;;;4924306;29;20210;-69
2023/02/28 08:31:30;;;;;;;3.73;1.83;;;1.50;99.90;;;;;;4933066;28;20725;-69
2023/02/28 08:33:58;;;;;;;4.40;2.80;;;1.40;99.90;;;;;;4914267;29;20302;-70
2023/02/28 08:36:25;;;;;;;2.93;2.30;;;1.20;99.90;;;;;;4924813;29;20732;-70
2023/02/28 08:38:50;;;;;;;3.10;2.37;;;1.30;99.90;;;;;;4939455;28;20462;-70
2023/02/28 08:41:16;;;;;;;4.37;2.87;;;1.30;99.90;;;;;;4921389;29;20473;-70
2023/02/28 08:43:42;;;;;;;3.73;2.50;;;1.30;99.90;;;;;;4927442;28;20256;-69
2023/02/28 08:46:11;;;;;;;3.13;2.50;;;1.30;99.90;;;;;;4927396;29;20301;-70
2023/02/28 08:48:39;;;;;;;3.30;2.80;;;1.40;99.90;;;;;;4926694;29;20529;-69
2023/02/28 08:51:09;;;;;;;3.70;2.53;;;1.50;99.90;;;;;;4923408;28;21272;-70
2023/02/28 08:53:39;;;;;;;3.37;2.70;;;1.50;99.90;;;;;;4927771;29;20551;-69
2023/02/28 08:56:12;;;;;;;3.93;3.30;;;1.50;99.90;;;;;;4915361;29;20458;-70
2023/02/28 08:58:39;;;;;;;4.70;2.83;;;1.40;99.90;;;;;;4924352;29;20466;-70
2023/02/28 09:01:09;;;;;;;3.17;2.37;;;1.50;99.90;;;;;;4942598;28;20477;-70
2023/02/28 09:03:35;;;;;;;2.83;2.13;;;1.50;99.90;;;;;;4947930;28;20476;-69
2023/02/28 09:06:01;;;;;;;5.50;3.50;;;1.50;99.90;;;;;;4925426;29;20458;-69
2023/02/28 09:08:28;;;;;;;4.70;2.47;;;1.50;99.90;;;;;;4917945;29;20238;-70
2023/02/28 09:10:56;;;;;;;2.13;1.93;;;1.50;99.90;;;;;;4945337;28;20483;-70
2023/02/28 09:13:23;;;;;;;3.40;2.87;;;1.50;99.90;;;;;;4907354;29;20606;-70
2023/02/28 09:15:49;;;;;;;5.30;3.20;;;1.50;99.90;;;;;;4928333;29;20532;-70
2023/02/28 09:18:15;;;;;;;3.53;3.23;;;1.60;99.90;;;;;;4944309;28;20457;-70
2023/02/28 09:20:42;;;;;;;3.37;3.00;;;1.60;99.90;;;;;;4928555;29;20249;-69
2023/02/28 09:23:09;;;;;;;2.30;2.03;;;1.60;99.90;;;;;;4928784;29;20442;-70
2023/02/28 09:25:36;;;;;;;3.40;2.40;;;1.70;99.90;;;;;;4948904;28;20473;-70
2023/02/28 09:28:02;;;;;;;4.40;2.53;;;1.90;99.90;;;;;;4922222;29;20470;-70
2023/02/28 09:30:28;;;;;;;5.90;3.30;;;2.00;99.90;;;;;;4904794;29;20471;-70
2023/02/28 09:32:54;;;;;;;3.30;2.53;;;2.00;99.90;;;;;;4901534;29;20463;-70
2023/02/28 09:35:23;;;;;;;4.50;2.80;;;2.10;99.90;;;;;;4923085;29;20494;-70
2023/02/28 09:37:52;;;;;;;5.80;2.77;;;2.10;99.90;;;;;;4919433;29;20471;-69
2023/02/28 09:40:20;;;;;;;4.40;2.93;;;2.20;99.90;;;;;;4938509;28;20481;-70
2023/02/28 09:42:48;;;;;;;4.37;2.63;;;2.30;99.90;;;;;;4923832;29;20459;-69
2023/02/28 09:45:35;;;;;;;4.20;3.03;;;2.40;99.90;;;;;;4921692;29;20512;-70
2023/02/28 09:48:10;;;;;;;5.37;2.90;;;2.30;99.90;;;;;;4927663;29;20523;-70
2023/02/28 09:50:35;;;;;;;2.40;2.10;;;2.30;99.90;;;;;;4927057;29;20565;-70
2023/02/28 09:53:05;;;;;;;2.47;2.27;;;2.30;99.90;;;;;;4933812;28;20541;-70
2023/02/28 09:55:38;;;;;;;7.37;3.10;;;2.30;99.90;;;;;;4922263;29;20307;-68
2023/02/28 09:58:05;;;;;;;4.70;3.47;;;2.50;99.90;;;;;;4932908;29;20466;-70
2023/02/28 10:00:39;;;;;;;3.23;2.67;;;2.50;99.80;;;;;;4925143;29;20549;-69
2023/02/28 10:03:28;;;;;;;2.53;2.20;;;2.60;99.50;;;;;;4918491;29;20522;-69
2023/02/28 10:06:07;;;;;;;3.53;2.47;;;2.60;99.40;;;;;;4925007;29;20455;-70
2023/02/28 10:08:52;;;;;;;3.97;2.70;;;2.40;99.30;;;;;;4921409;29;21189;-70
2023/02/28 10:11:20;;;;;;;4.97;2.97;;;2.80;99.30;;;;;;4928831;29;20466;-70
2023/02/28 10:13:50;;;;;;;2.60;2.27;;;2.80;99.10;;;;;;4930124;29;20457;-69
2023/02/28 10:16:47;;;;;;;7.10;3.30;;;2.70;98.90;;;;;;4928122;28;20458;-70
2023/02/28 10:19:22;;;;;;;4.87;3.00;;;2.90;99.00;;;;;;4941158;28;20458;-71
2023/02/28 10:22:10;;;;;;;3.33;2.87;;;3.00;98.80;;;;;;4925354;28;20456;-70
2023/02/28 10:24:45;;;;;;;3.63;2.70;;;3.30;98.60;;;;;;4923546;29;20549;-70
2023/02/28 10:27:20;;;;;;;5.00;3.10;;;3.30;98.20;;;;;;4927231;29;20459;-70
2023/02/28 10:29:57;;;;;;;4.43;3.17;;;3.30;98.50;;;;;;4920621;29;20468;-69
2023/02/28 10:32:34;;;;;;;6.13;3.60;;;3.40;98.40;;;;;;4921779;29;20450;-70
2023/02/28 10:35:18;;;;;;;7.77;4.33;;;3.60;98.10;;;;;;4909122;29;20478;-70
2023/02/28 10:37:58;;;;;;;7.27;4.03;;;3.20;97.90;;;;;;4898300;29;20459;-70
2023/02/28 10:40:27;;;;;;;5.20;4.20;;;3.50;98.30;;;;;;4927759;29;20506;-71
2023/02/28 10:43:13;;;;;;;5.53;4.13;;;3.70;98.00;;;;;;4942748;28;20730;-70
2023/02/28 10:45:39;;;;;;;6.37;3.97;;;3.40;97.60;;;;;;4946332;28;20474;-70
2023/02/28 10:48:26;;;;;;;3.70;3.37;;;3.00;97.70;;;;;;4931297;29;20537;-70
2023/02/28 10:50:54;;;;;;;4.13;3.17;;;2.90;97.90;;;;;;4911466;29;20539;-70
2023/02/28 10:53:26;;;;;;;4.37;3.13;;;3.00;98.10;;;;;;4901751;29;20495;-70
2023/02/28 10:56:06;;;;;;;5.47;3.40;;;3.00;98.10;;;;;;4929392;28;20532;-71
2023/02/28 10:59:09;;;;;;;5.27;3.67;;;3.00;98.00;;;;;;4913969;29;20544;-69
2023/02/28 11:01:52;;;;;;;4.40;3.10;;;3.00;97.90;;;;;;4905337;29;20479;-70
2023/02/28 11:04:19;;;;;;;2.93;2.63;;;3.00;97.90;;;;;;4921926;29;20453;-70
2023/02/28 11:06:45;;;;;;;5.93;3.13;;;3.00;98.20;;;;;;4927580;28;20825;-70
2023/02/28 11:09:38;;;;;;;5.37;4.60;;;3.00;98.10;;;;;;4939660;28;20595;-70
2023/02/28 11:12:08;;;;;;;5.60;4.47;;;3.10;98.10;;;;;;4919634;29;20475;-70
2023/02/28 11:14:47;;;;;;;4.70;3.30;;;3.10;97.90;;;;;;4924060;29;20530;-70
2023/02/28 11:17:22;;;;;;;4.20;3.43;;;3.10;97.70;;;;;;4926307;29;20502;-70
2023/02/28 11:19:52;;;;;;;4.30;3.00;;;3.00;97.90;;;;;;4921107;29;20479;-70
2023/02/28 11:22:23;;;;;;;2.73;2.53;;;3.10;97.90;;;;;;4925229;29;20498;-71
2023/02/28 11:24:52;;;;;;;6.07;3.07;;;3.10;97.80;;;;;;4924084;29;20470;-70
2023/02/28 11:27:30;;;;;;;3.10;2.40;;;3.00;97.60;;;;;;4918357;29;20875;-69
2023/02/28 11:29:56;;;;;;;4.70;3.73;;;3.20;97.80;;;;;;4926051;29;20474;-70
2023/02/28 11:32:24;;;;;;;2.77;2.47;;;3.10;97.40;;;;;;4917241;29;20474;-71
2023/02/28 11:35:28;;;;;;;7.10;2.87;;;3.00;97.40;;;;;;4921586;29;20450;-70
2023/02/28 11:37:54;;;;;;;4.97;3.23;;;3.20;97.90;;;;;;4891164;29;20507;-71
2023/02/28 11:40:42;;;;;;;3.57;2.97;;;3.30;97.70;;;;;;4942523;28;20505;-70
2023/02/28 11:43:10;;;;;;;7.20;4.63;;;3.30;97.10;;;;;;4906724;28;20242;-70
2023/02/28 11:45:48;;;;;;;6.40;4.07;;;3.50;97.00;;;;;;4920732;29;20452;-70
2023/02/28 11:48:19;;;;;;;3.80;3.10;;;3.50;97.20;;;;;;4951484;28;20466;-70
2023/02/28 11:51:10;;;;;;;6.30;3.97;;;3.50;97.30;;;;;;4924551;29;20526;-70
2023/02/28 11:54:13;;;;;;;5.70;3.63;;;3.40;96.80;;;;;;4916044;28;20496;-71
2023/02/28 11:56:49;;;;;;;5.57;3.40;;;3.40;96.90;;;;;;4950137;28;20471;-70
2023/02/28 11:59:41;;;;;;;5.07;3.73;;;3.30;97.00;;;;;;4936009;28;20464;-70
2023/02/28 12:02:36;;;;;;;4.13;3.30;;;3.30;96.60;;;;;;4918111;29;20474;-70
2023/02/28 12:05:28;;;;;;;7.80;5.00;;;3.40;97.10;;;;;;4944573;28;20556;-70
2023/02/28 12:08:12;;;;;;;8.00;5.57;;;3.70;97.20;;;;;;4908702;29;20462;-70
2023/02/28 12:10:59;;;;;;;7.73;4.03;;;3.60;96.60;;;;;;4906096;29;20459;-70
2023/02/28 12:13:33;;;;;;;6.60;3.10;;;3.60;96.70;;;;;;4943488;28;20462;-70
2023/02/28 12:16:13;;;;;;;5.10;3.33;;;3.90;96.80;;;;;;4910318;29;20455;-70
2023/02/28 12:18:38;;;;;;;4.27;3.30;;;3.80;96.10;;;;;;4912867;29;20462;-70
2023/02/28 12:21:33;;;;;;;5.27;3.60;;;3.80;96.20;;;;;;4924072;28;20478;-70
2023/02/28 12:24:23;;;;;;;6.23;3.83;;;3.80;96.00;;;;;;4927232;28;20239;-70
2023/02/28 12:26:51;;;;;;;5.57;3.70;;;3.90;96.10;;;;;;4936390;28;20475;-70
2023/02/28 12:29:34;;;;;;;5.70;3.87;;;3.90;96.50;;;;;;4924957;29;20450;-70
2023/02/28 12:32:39;;;;;;;3.90;2.80;;;4.10;96.40;;;;;;4947220;28;21050;-71
2023/02/28 12:35:05;;;;;;;4.00;3.20;;;4.20;96.10;;;;;;4922522;29;20474;-70
2023/02/28 12:37:46;;;;;;;8.30;3.73;;;4.20;96.10;;;;;;4924807;29;20459;-70
2023/02/28 12:40:23;;;;;;;3.37;2.70;;;4.10;96.30;;;;;;4926962;29;20464;-70
2023/02/28 12:42:54;;;;;;;15.40;7.17;;;4.10;96.00;;;;;;4924336;29;20479;-70
2023/02/28 12:45:27;;;;;;;10.33;7.30;;;4.20;96.20;;;;;;4923705;28;20469;-71
2023/02/28 12:48:00;;;;;;;5.00;4.00;;;4.10;95.80;;;;;;4918707;29;20460;-70
2023/02/28 12:50:27;;;;;;;9.33;5.93;;;4.00;95.60;;;;;;4929579;29;20475;-71
2023/02/28 12:53:24;;;;;;;7.83;4.70;;;4.10;96.00;;;;;;4926619;28;20477;-70
2023/02/28 12:56:14;;;;;;;5.70;3.77;;;4.00;95.70;;;;;;4933708;28;20465;-70
2023/02/28 12:59:03;;;;;;;3.93;3.53;;;4.10;96.00;;;;;;4913823;29;20470;-69
2023/02/28 13:02:01;;;;;;;4.57;3.33;;;4.20;95.60;;;;;;4919130;29;20478;-70
2023/02/28 13:05:22;;;;;;;4.83;3.73;;;4.00;95.40;;;;;;4904730;29;20546;-70
2023/02/28 13:08:02;;;;;;;5.90;4.47;;;4.10;95.80;;;;;;4858091;29;20467;-70
2023/02/28 13:10:47;;;;;;;7.77;6.40;;;4.20;95.70;;;;;;4927831;29;20478;-69
2023/02/28 13:13:18;;;;;;;7.93;5.00;;;4.20;95.80;;;;;;4927124;29;20463;-70
2023/02/28 13:15:58;;;;;;;5.23;4.70;;;4.50;95.90;;;;;;4919778;29;20455;-70
2023/02/28 13:18:37;;;;;;;4.90;3.23;;;4.50;95.60;;;;;;4944960;28;20475;-70
2023/02/28 13:21:05;;;;;;;5.87;4.03;;;4.40;95.70;;;;;;4930371;28;20475;-71